Time;durP1;ratioP1;P1;durP2;ratioP2;P2;SDS_P1;SDS_P2;PMS_P1;PMS_P2;Temp;Humidity;BMP_temperature;BMP_pressure;BME280_temperature;BME280_humidity;BME280_pressure;Samples;Min_cycle;Max_cycle;Signal;HPM_P1;HPM_P2
2024/04/01 00:01:02;;;;;;;12.90;7.32;;;;;;;;;;6203128;23;20017;-52
2024/04/01 00:03:56;;;;;;;17.08;7.88;;;;;;;;;;6202858;23;20025;-50
2024/04/01 00:06:56;;;;;;;13.38;7.55;;;;;;;;;;6203090;23;20079;-50
2024/04/01 00:09:42;;;;;;;11.60;7.10;;;;;;;;;;6203360;23;20351;-49
2024/04/01 00:12:35;;;;;;;15.40;7.70;;;;;;;;;;6204104;23;20031;-54
2024/04/01 00:15:29;;;;;;;15.52;7.35;;;;;;;;;;6204464;23;20028;-58
2024/04/01 00:18:21;;;;;;;10.82;6.82;;;;;;;;;;6203417;23;20425;-57
2024/04/01 00:21:14;;;;;;;17.25;7.68;;;;;;;;;;6204556;23;20052;-57
2024/04/01 00:24:00;;;;;;;11.02;7.20;;;;;;;;;;6203223;23;20025;-56
2024/04/01 00:26:53;;;;;;;16.33;7.40;;;;;;;;;;6203429;23;20025;-60
2024/04/01 00:29:39;;;;;;;13.38;7.03;;;;;;;;;;6202883;23;20025;-59
2024/04/01 00:32:33;;;;;;;14.23;6.85;;;;;;;;;;6201297;23;20021;-58
2024/04/01 00:35:18;;;;;;;11.00;6.40;;;;;;;;;;6203466;23;20458;-59
2024/04/01 00:38:11;;;;;;;14.25;6.78;;;;;;;;;;6203822;23;20025;-57
2024/04/01 00:41:04;;;;;;;11.65;6.63;;;;;;;;;;6203782;23;20032;-59
2024/04/01 00:43:57;;;;;;;15.55;7.65;;;;;;;;;;6203812;23;20359;-59
2024/04/01 00:46:44;;;;;;;17.30;7.80;;;;;;;;;;6201518;23;20208;-58
2024/04/01 00:49:36;;;;;;;17.60;8.40;;;;;;;;;;6202883;23;20024;-56
2024/04/01 00:52:23;;;;;;;14.93;7.90;;;;;;;;;;6203303;23;20492;-55
2024/04/01 00:55:16;;;;;;;16.65;8.05;;;;;;;;;;6201097;23;20021;-60
2024/04/01 00:58:09;;;;;;;17.30;8.05;;;;;;;;;;6202179;23;20509;-53
2024/04/01 01:01:03;;;;;;;18.33;8.02;;;;;;;;;;6200470;23;20025;-53
2024/04/01 01:03:49;;;;;;;17.90;9.10;;;;;;;;;;6201992;23;20017;-49
2024/04/01 01:06:49;;;;;;;21.95;8.90;;;;;;;;;;6202477;23;20020;-55
2024/04/01 01:09:37;;;;;;;13.73;6.82;;;;;;;;;;6201662;23;20028;-51
2024/04/01 01:12:29;;;;;;;17.42;8.05;;;;;;;;;;6205248;23;20016;-59
2024/04/01 01:15:15;;;;;;;14.48;8.00;;;;;;;;;;6203979;23;20032;-59
2024/04/01 01:18:15;;;;;;;15.65;7.75;;;;;;;;;;6201994;23;20078;-60
2024/04/01 01:21:01;;;;;;;13.30;7.10;;;;;;;;;;6203228;23;20533;-60
2024/04/01 01:23:54;;;;;;;18.20;7.95;;;;;;;;;;6202072;23;20024;-61
2024/04/01 01:26:41;;;;;;;14.75;7.97;;;;;;;;;;6201304;23;20020;-61
2024/04/01 01:29:34;;;;;;;13.40;6.95;;;;;;;;;;6203814;23;20028;-61
2024/04/01 01:32:21;;;;;;;12.73;6.32;;;;;;;;;;6204133;23;20016;-61
2024/04/01 01:35:15;;;;;;;17.13;7.03;;;;;;;;;;6203219;23;20024;-60
2024/04/01 01:38:01;;;;;;;11.75;6.50;;;;;;;;;;6202260;23;20027;-60
2024/04/01 01:40:54;;;;;;;15.30;7.20;;;;;;;;;;6203058;23;20021;-53
2024/04/01 01:43:40;;;;;;;14.98;7.20;;;;;;;;;;6202989;23;20070;-54
2024/04/01 01:46:33;;;;;;;12.75;7.10;;;;;;;;;;6201555;23;20095;-49
2024/04/01 01:49:19;;;;;;;16.05;6.13;;;;;;;;;;6203853;23;20031;-51
2024/04/01 01:52:12;;;;;;;13.57;6.90;;;;;;;;;;6202402;23;20016;-52
2024/04/01 01:55:05;;;;;;;13.93;6.88;;;;;;;;;;6201130;23;20024;-61
2024/04/01 01:57:58;;;;;;;14.40;7.50;;;;;;;;;;6201326;23;20027;-60
2024/04/01 02:00:51;;;;;;;14.35;7.18;;;;;;;;;;6203849;23;20025;-60
2024/04/01 02:03:44;;;;;;;13.57;6.80;;;;;;;;;;6202801;23;20374;-61
2024/04/01 02:06:37;;;;;;;11.45;5.97;;;;;;;;;;6203151;23;20485;-62
2024/04/01 02:09:29;;;;;;;15.75;6.97;;;;;;;;;;6205152;23;20017;-54
2024/04/01 02:12:15;;;;;;;10.50;6.93;;;;;;;;;;6203099;23;20477;-52
2024/04/01 02:15:14;;;;;;;14.70;6.80;;;;;;;;;;6202626;23;20020;-52
2024/04/01 02:18:01;;;;;;;14.98;7.38;;;;;;;;;;6200321;23;20063;-52
2024/04/01 02:21:01;;;;;;;13.25;7.38;;;;;;;;;;6206220;23;20020;-67
2024/04/01 02:23:47;;;;;;;14.52;8.32;;;;;;;;;;6205842;23;20031;-47
2024/04/01 02:26:40;;;;;;;14.27;7.82;;;;;;;;;;6207156;23;20028;-53
2024/04/01 02:29:26;;;;;;;18.02;8.10;;;;;;;;;;6209206;23;20031;-52
2024/04/01 02:32:20;;;;;;;14.70;7.78;;;;;;;;;;6207377;23;20476;-48
2024/04/01 02:35:05;;;;;;;12.10;7.93;;;;;;;;;;6205993;23;20023;-50
2024/04/01 02:37:58;;;;;;;12.88;7.50;;;;;;;;;;6207457;23;20461;-59
2024/04/01 02:40:51;;;;;;;14.13;7.50;;;;;;;;;;6206735;23;20020;-60
2024/04/01 02:43:37;;;;;;;10.50;6.63;;;;;;;;;;6206821;23;20349;-59
2024/04/01 02:46:30;;;;;;;13.40;7.40;;;;;;;;;;6205917;23;20361;-59
2024/04/01 02:49:16;;;;;;;13.15;7.50;;;;;;;;;;6207226;23;20020;-65
2024/04/01 02:52:09;;;;;;;15.13;6.60;;;;;;;;;;6206102;23;20020;-57
2024/04/01 02:55:02;;;;;;;14.80;7.35;;;;;;;;;;6207033;23;20024;-53
2024/04/01 02:57:55;;;;;;;15.18;7.40;;;;;;;;;;6208015;23;20020;-56
2024/04/01 03:00:48;;;;;;;11.93;6.85;;;;;;;;;;6209476;23;20024;-54
2024/04/01 03:03:41;;;;;;;12.50;7.00;;;;;;;;;;6209866;23;20016;-55
2024/04/01 03:06:34;;;;;;;12.48;6.30;;;;;;;;;;6208800;23;20028;-53
2024/04/01 03:09:27;;;;;;;12.63;6.53;;;;;;;;;;6209111;23;20020;-51
2024/04/01 03:12:13;;;;;;;10.20;6.53;;;;;;;;;;6208754;23;20031;-52
2024/04/01 03:15:06;;;;;;;10.70;6.63;;;;;;;;;;6208740;23;20043;-51
2024/04/01 03:17:52;;;;;;;16.83;7.35;;;;;;;;;;6208123;23;20016;-60
2024/04/01 03:20:52;;;;;;;11.07;6.40;;;;;;;;;;6175445;23;20780;-50
2024/04/01 03:23:38;;;;;;;10.73;5.82;;;;;;;;;;6173330;23;20017;-50
2024/04/01 03:26:31;;;;;;;13.15;6.70;;;;;;;;;;6174437;23;20027;-49
2024/04/01 03:29:17;;;;;;;11.23;6.07;;;;;;;;;;6173390;23;20017;-52
2024/04/01 03:32:10;;;;;;;9.63;6.05;;;;;;;;;;6173260;23;20032;-51
2024/04/01 03:34:56;;;;;;;12.48;6.65;;;;;;;;;;6174619;23;20021;-65
2024/04/01 03:37:49;;;;;;;16.27;6.55;;;;;;;;;;6174073;23;20028;-65
2024/04/01 03:40:42;;;;;;;11.95;6.28;;;;;;;;;;6172813;23;20418;-65
2024/04/01 03:43:35;;;;;;;11.57;6.05;;;;;;;;;;6174587;23;20021;-62
2024/04/01 03:46:21;;;;;;;8.20;5.80;;;;;;;;;;6175570;23;20470;-56
2024/04/01 03:49:14;;;;;;;9.13;6.20;;;;;;;;;;6175635;23;20029;-60
2024/04/01 03:52:07;;;;;;;9.05;5.28;;;;;;;;;;6175766;23;20021;-59
2024/04/01 03:54:53;;;;;;;14.18;6.18;;;;;;;;;;6175807;23;20519;-59
2024/04/01 03:57:46;;;;;;;9.98;5.88;;;;;;;;;;6173067;23;20719;-59
2024/04/01 04:00:34;;;;;;;10.73;6.03;;;;;;;;;;6174423;23;20025;-59
2024/04/01 04:03:25;;;;;;;12.60;6.03;;;;;;;;;;6173920;23;20873;-59
2024/04/01 04:06:18;;;;;;;13.00;6.47;;;;;;;;;;6173226;23;20031;-57
2024/04/01 04:09:16;;;;;;;11.07;5.65;;;;;;;;;;6173722;23;20702;-58
2024/04/01 04:12:03;;;;;;;6.10;4.68;;;;;;;;;;6174919;23;20036;-56
2024/04/01 04:14:55;;;;;;;7.13;5.65;;;;;;;;;;6175443;23;20072;-63
2024/04/01 04:17:42;;;;;;;13.40;5.47;;;;;;;;;;6172601;23;20028;-67
2024/04/01 04:20:41;;;;;;;12.82;5.15;;;;;;;;;;6203331;23;20021;-67
2024/04/01 04:23:28;;;;;;;7.32;4.75;;;;;;;;;;6202578;23;20020;-67
2024/04/01 04:26:20;;;;;;;7.68;5.25;;;;;;;;;;6202362;23;20028;-67
2024/04/01 04:29:06;;;;;;;7.75;5.00;;;;;;;;;;6202618;23;20461;-68
2024/04/01 04:32:08;;;;;;;10.00;5.70;;;;;;;;;;6204544;23;20075;-59
2024/04/01 04:34:54;;;;;;;7.78;5.60;;;;;;;;;;6202948;23;20098;-59
2024/04/01 04:37:47;;;;;;;7.38;5.03;;;;;;;;;;6203212;23;20021;-61
2024/04/01 04:40:33;;;;;;;8.20;5.40;;;;;;;;;;6202951;23;20895;-60
2024/04/01 04:43:26;;;;;;;11.57;5.40;;;;;;;;;;6202983;23;20021;-54
2024/04/01 04:46:19;;;;;;;9.35;6.00;;;;;;;;;;6204367;23;20024;-59
2024/04/01 04:49:12;;;;;;;7.72;5.47;;;;;;;;;;6204975;23;20500;-60
2024/04/01 04:51:58;;;;;;;9.98;5.72;;;;;;;;;;6204916;23;20017;-60
2024/04/01 04:54:51;;;;;;;9.77;6.13;;;;;;;;;;6202543;23;20028;-60
2024/04/01 04:57:44;;;;;;;9.57;6.40;;;;;;;;;;6202982;23;20358;-60
2024/04/01 05:00:37;;;;;;;12.98;6.40;;;;;;;;;;6203422;23;20029;-61
2024/04/01 05:03:30;;;;;;;10.50;6.55;;;;;;;;;;6202131;23;20024;-61
2024/04/01 05:06:31;;;;;;;9.40;6.15;;;;;;;;;;6202190;23;20025;-60
2024/04/01 05:09:16;;;;;;;8.48;6.47;;;;;;;;;;6201922;23;20020;-68
2024/04/01 05:12:09;;;;;;;13.85;6.75;;;;;;;;;;6204337;23;20296;-61
2024/04/01 05:14:55;;;;;;;10.63;7.03;;;;;;;;;;6203252;23;20362;-56
2024/04/01 05:17:48;;;;;;;12.57;6.90;;;;;;;;;;6202135;23;20020;-56
2024/04/01 05:20:48;;;;;;;13.57;6.45;;;;;;;;;;6201589;23;20466;-56
2024/04/01 05:23:34;;;;;;;11.73;7.38;;;;;;;;;;6201442;23;20605;-58
2024/04/01 05:26:27;;;;;;;17.23;7.65;;;;;;;;;;6201993;23;20025;-58
2024/04/01 05:29:13;;;;;;;11.13;6.63;;;;;;;;;;6202930;23;20024;-68
2024/04/01 05:32:06;;;;;;;9.85;6.47;;;;;;;;;;6202402;23;20347;-68
2024/04/01 05:34:52;;;;;;;12.60;6.93;;;;;;;;;;6202744;23;20029;-67
2024/04/01 05:37:49;;;;;;;10.35;7.10;;;;;;;;;;6202773;23;20021;-52
2024/04/01 05:40:35;;;;;;;12.07;6.90;;;;;;;;;;6203516;23;20481;-60
2024/04/01 05:43:28;;;;;;;15.55;7.40;;;;;;;;;;6204447;23;20020;-59
2024/04/01 05:46:20;;;;;;;10.05;6.65;;;;;;;;;;6204196;23;20028;-56
2024/04/01 05:49:13;;;;;;;11.65;6.45;;;;;;;;;;6203370;23;20029;-56
2024/04/01 05:51:59;;;;;;;11.32;6.03;;;;;;;;;;6204302;23;20027;-56
2024/04/01 05:54:52;;;;;;;16.17;6.57;;;;;;;;;;6201876;23;20024;-59
2024/04/01 05:57:45;;;;;;;11.25;5.88;;;;;;;;;;6201804;23;20029;-68
2024/04/01 06:00:31;;;;;;;12.25;5.97;;;;;;;;;;6202497;23;20070;-67
2024/04/01 06:03:24;;;;;;;12.73;6.28;;;;;;;;;;6203107;23;20079;-68
2024/04/01 06:06:11;;;;;;;11.02;6.15;;;;;;;;;;6203619;23;20028;-68
2024/04/01 06:09:10;;;;;;;11.43;6.15;;;;;;;;;;6202807;23;20032;-68
2024/04/01 06:11:56;;;;;;;11.05;5.88;;;;;;;;;;6202495;23;20544;-67
2024/04/01 06:14:49;;;;;;;12.25;6.47;;;;;;;;;;6202658;23;20024;-64
2024/04/01 06:17:35;;;;;;;9.98;5.53;;;;;;;;;;6200559;23;20032;-64
2024/04/01 06:20:36;;;;;;;8.73;5.05;;;;;;;;;;6201814;23;20024;-64
2024/04/01 06:23:22;;;;;;;8.93;5.32;;;;;;;;;;6202184;23;20020;-64
2024/04/01 06:26:17;;;;;;;10.68;5.93;;;;;;;;;;6202296;23;20759;-57
2024/04/01 06:29:03;;;;;;;7.75;5.15;;;;;;;;;;6202597;23;20024;-58
2024/04/01 06:31:56;;;;;;;12.13;5.22;;;;;;;;;;6202405;23;20409;-58
2024/04/01 06:34:43;;;;;;;9.13;4.60;;;;;;;;;;6204110;23;20462;-57
2024/04/01 06:37:35;;;;;;;11.30;4.90;;;;;;;;;;6204995;23;20489;-58
2024/04/01 06:40:21;;;;;;;13.70;5.50;;;;;;;;;;6205490;23;20017;-57
2024/04/01 06:43:21;;;;;;;8.52;4.63;;;;;;;;;;6207717;23;20421;-67
2024/04/01 06:46:07;;;;;;;9.77;5.07;;;;;;;;;;6204852;23;20024;-59
2024/04/01 06:49:00;;;;;;;6.53;4.57;;;;;;;;;;6205019;23;20021;-56
2024/04/01 06:51:46;;;;;;;7.78;5.10;;;;;;;;;;6206010;23;20017;-59
2024/04/01 06:54:39;;;;;;;9.15;4.60;;;;;;;;;;6204191;23;20024;-58
2024/04/01 06:57:25;;;;;;;8.20;4.72;;;;;;;;;;6206280;23;20332;-55
2024/04/01 07:00:19;;;;;;;9.20;4.65;;;;;;;;;;6206859;23;20032;-59
2024/04/01 07:03:11;;;;;;;9.25;5.18;;;;;;;;;;6206574;23;20110;-60
2024/04/01 07:05:57;;;;;;;6.18;4.70;;;;;;;;;;6205541;23;20032;-60
2024/04/01 07:08:57;;;;;;;9.27;4.78;;;;;;;;;;6205255;23;20021;-60
2024/04/01 07:11:49;;;;;;;7.93;4.57;;;;;;;;;;6205128;23;20020;-60
2024/04/01 07:14:35;;;;;;;6.97;4.22;;;;;;;;;;6205122;23;20458;-67
2024/04/01 07:17:28;;;;;;;9.75;4.63;;;;;;;;;;6205941;23;20016;-68
2024/04/01 07:20:21;;;;;;;7.30;4.35;;;;;;;;;;6203885;23;20035;-68
2024/04/01 07:23:14;;;;;;;6.82;4.80;;;;;;;;;;6204406;23;20025;-68
2024/04/01 07:26:00;;;;;;;6.93;3.85;;;;;;;;;;6203967;23;20545;-67
2024/04/01 07:28:53;;;;;;;6.88;3.92;;;;;;;;;;6203390;23;20020;-67
2024/04/01 07:31:39;;;;;;;8.48;4.30;;;;;;;;;;6204810;23;20350;-68
2024/04/01 07:34:32;;;;;;;6.47;4.25;;;;;;;;;;6205058;23;20470;-68
2024/04/01 07:37:19;;;;;;;7.13;3.92;;;;;;;;;;6205548;23;20021;-68
2024/04/01 07:40:13;;;;;;;9.75;4.18;;;;;;;;;;6184485;23;20024;-60
2024/04/01 07:42:42;;;;;;;6.95;3.97;;;;;;;;;;6204997;23;20028;-56
2024/04/01 07:45:09;;;;;;;7.32;4.28;;;;;;;;;;6204738;23;20518;-56
2024/04/01 07:48:02;;;;;;;5.88;3.72;;;;;;;;;;6202356;23;20075;-53
2024/04/01 07:50:48;;;;;;;8.57;3.60;;;;;;;;;;6202839;23;20028;-57
2024/04/01 07:53:29;;;;;;;6.97;3.55;;;;;;;;;;6203114;23;20021;-55
2024/04/01 07:55:55;;;;;;;6.05;3.90;;;;;;;;;;6202396;23;20020;-56
2024/04/01 07:58:22;;;;;;;9.02;3.72;;;;;;;;;;6204252;23;20025;-47
2024/04/01 08:00:54;;;;;;;5.88;3.72;;;;;;;;;;6203500;23;20024;-57
2024/04/01 08:03:20;;;;;;;5.90;4.03;;;;;;;;;;6203946;23;20027;-67
2024/04/01 08:05:47;;;;;;;5.15;3.47;;;;;;;;;;6203988;23;20059;-68
2024/04/01 08:08:26;;;;;;;6.97;4.75;;;;;;;;;;6202659;23;20029;-68
2024/04/01 08:10:59;;;;;;;8.15;4.55;;;;;;;;;;6203751;23;20493;-67
2024/04/01 08:13:31;;;;;;;6.38;3.90;;;;;;;;;;6203897;23;20024;-68
2024/04/01 08:16:01;;;;;;;5.53;3.67;;;;;;;;;;6204360;23;20024;-67
2024/04/01 08:18:27;;;;;;;7.55;4.13;;;;;;;;;;6203263;23;20031;-63
2024/04/01 08:21:07;;;;;;;6.75;4.07;;;;;;;;;;6208739;23;20027;-55
2024/04/01 08:23:33;;;;;;;5.47;3.60;;;;;;;;;;6182012;23;20469;-57
2024/04/01 08:26:06;;;;;;;7.15;3.83;;;;;;;;;;6174073;23;20095;-54
2024/04/01 08:28:32;;;;;;;6.88;4.28;;;;;;;;;;6180895;23;20028;-56
2024/04/01 08:30:59;;;;;;;7.28;3.63;;;;;;;;;;6178129;23;20028;-53
2024/04/01 08:33:33;;;;;;;5.82;3.97;;;;;;;;;;6178778;23;20021;-57
2024/04/01 08:35:59;;;;;;;6.57;3.63;;;;;;;;;;6178413;23;20020;-58
2024/04/01 08:38:25;;;;;;;6.28;4.18;;;;;;;;;;6178474;23;20366;-68
2024/04/01 08:41:02;;;;;;;5.13;3.28;;;;;;;;;;6179018;23;20082;-68
2024/04/01 08:43:35;;;;;;;6.88;3.83;;;;;;;;;;6179815;23;20500;-67
2024/04/01 08:46:08;;;;;;;6.63;3.55;;;;;;;;;;6177239;23;20028;-68
2024/04/01 08:48:35;;;;;;;7.25;3.72;;;;;;;;;;6176010;23;20032;-68
2024/04/01 08:51:05;;;;;;;4.25;3.10;;;;;;;;;;6175487;23;20028;-67
2024/04/01 08:53:49;;;;;;;6.20;3.58;;;;;;;;;;6174156;23;20023;-61
2024/04/01 08:56:18;;;;;;;6.00;3.25;;;;;;;;;;6175339;23;20024;-60
2024/04/01 08:58:52;;;;;;;7.35;3.72;;;;;;;;;;6176886;23;20024;-68
2024/04/01 09:01:19;;;;;;;5.90;3.83;;;;;;;;;;6175694;23;20127;-68
2024/04/01 09:03:53;;;;;;;6.45;3.55;;;;;;;;;;6176648;23;20025;-68
2024/04/01 09:06:20;;;;;;;5.55;3.78;;;;;;;;;;6177828;23;20024;-68
2024/04/01 09:08:46;;;;;;;4.97;3.45;;;;;;;;;;6177487;23;20024;-67
2024/04/01 09:11:29;;;;;;;5.78;4.18;;;;;;;;;;6178032;23;20021;-67
2024/04/01 09:13:55;;;;;;;6.30;3.60;;;;;;;;;;6178915;23;20024;-60
2024/04/01 09:16:28;;;;;;;5.53;3.67;;;;;;;;;;6176452;23;20025;-47
2024/04/01 09:19:01;;;;;;;6.47;3.87;;;;;;;;;;6175531;23;20493;-52
2024/04/01 09:21:40;;;;;;;6.25;4.10;;;;;;;;;;6178323;23;20028;-51
2024/04/01 09:24:06;;;;;;;6.57;3.83;;;;;;;;;;6175981;23;20374;-53
2024/04/01 09:26:39;;;;;;;5.45;3.35;;;;;;;;;;6177791;23;20031;-51
2024/04/01 09:29:05;;;;;;;6.68;4.20;;;;;;;;;;6179093;23;20083;-48
2024/04/01 09:31:32;;;;;;;6.40;3.78;;;;;;;;;;6178561;23;20021;-67
2024/04/01 09:34:04;;;;;;;6.15;3.63;;;;;;;;;;6178667;23;20486;-50
2024/04/01 09:36:31;;;;;;;4.32;3.25;;;;;;;;;;6178317;23;20670;-52
2024/04/01 09:38:57;;;;;;;6.10;3.38;;;;;;;;;;6177374;23;20024;-52
2024/04/01 09:41:30;;;;;;;6.63;3.70;;;;;;;;;;6178609;23;20024;-51
2024/04/01 09:43:57;;;;;;;6.53;3.92;;;;;;;;;;6179424;23;20024;-53
2024/04/01 09:46:24;;;;;;;5.45;3.22;;;;;;;;;;6176257;23;20024;-50
2024/04/01 09:48:57;;;;;;;5.63;2.90;;;;;;;;;;6179531;23;20025;-67
2024/04/01 09:51:24;;;;;;;6.05;2.92;;;;;;;;;;6178697;23;20028;-67
2024/04/01 09:53:50;;;;;;;4.80;3.03;;;;;;;;;;6177261;23;20312;-67
2024/04/01 09:56:42;;;;;;;6.80;3.95;;;;;;;;;;6177323;23;20095;-67
2024/04/01 09:59:27;;;;;;;5.13;3.50;;;;;;;;;;6178837;23;20554;-57
2024/04/01 10:02:19;;;;;;;3.97;2.45;;;;;;;;;;6179719;23;20021;-66
2024/04/01 10:05:18;;;;;;;4.65;2.80;;;;;;;;;;6179903;23;20025;-67
2024/04/01 10:08:16;;;;;;;5.15;3.03;;;;;;;;;;6179583;23;20040;-67
2024/04/01 10:11:19;;;;;;;6.50;2.97;;;;;;;;;;6180496;23;20024;-67
2024/04/01 10:14:33;;;;;;;4.53;2.90;;;;;;;;;;6177686;23;20027;-68
2024/04/01 10:17:50;;;;;;;4.50;3.10;;;;;;;;;;6179734;23;20419;-57
2024/04/01 10:21:15;;;;;;;4.38;2.70;;;;;;;;;;6173646;23;20036;-62
2024/04/01 10:24:24;;;;;;;4.55;2.83;;;;;;;;;;6172133;23;20021;-63
2024/04/01 10:27:20;;;;;;;4.20;2.90;;;;;;;;;;6173891;23;20025;-62
2024/04/01 10:30:10;;;;;;;5.78;3.75;;;;;;;;;;6172690;23;20067;-63
2024/04/01 10:33:05;;;;;;;6.60;3.05;;;;;;;;;;6174124;23;20025;-62
2024/04/01 10:35:58;;;;;;;6.43;3.25;;;;;;;;;;6170977;23;20358;-51
2024/04/01 10:38:51;;;;;;;;;;;;;;;;;;6172740;23;20029;-57
2024/04/01 10:41:46;;;;;;;5.10;3.15;;;;;;;;;;6173534;23;19920;-58
2024/04/01 10:45:05;;;;;;;4.45;3.08;;;;;;;;;;6173713;23;20025;-60
2024/04/01 10:47:52;;;;;;;5.25;3.08;;;;;;;;;;6160576;23;20028;-59
2024/04/01 10:51:03;;;;;;;4.78;3.33;;;;;;;;;;6174983;23;20080;-56
2024/04/01 10:54:03;;;;;;;4.97;2.92;;;;;;;;;;6174339;23;20021;-59
2024/04/01 10:56:52;;;;;;;4.60;2.88;;;;;;;;;;6173475;23;20091;-61
2024/04/01 11:00:05;;;;;;;6.30;3.30;;;;;;;;;;6174527;23;20021;-60
2024/04/01 11:03:10;;;;;;;4.32;2.97;;;;;;;;;;6174490;23;20359;-61
2024/04/01 11:05:56;;;;;;;8.70;3.45;;;;;;;;;;6175523;23;20025;-61
2024/04/01 11:09:13;;;;;;;5.47;2.85;;;;;;;;;;6173712;23;20029;-61
2024/04/01 11:12:09;;;;;;;9.40;3.95;;;;;;;;;;6174450;23;20028;-60
2024/04/01 11:15:04;;;;;;;5.43;3.45;;;;;;;;;;6174282;23;20538;-49
2024/04/01 11:17:53;;;;;;;6.63;3.22;;;;;;;;;;6174060;23;20025;-59
2024/04/01 11:21:12;;;;;;;6.90;2.78;;;;;;;;;;6171384;23;20021;-60
2024/04/01 11:23:58;;;;;;;5.70;3.10;;;;;;;;;;6171563;23;20032;-60
2024/04/01 11:26:54;;;;;;;5.05;3.40;;;;;;;;;;6174439;23;20487;-60
2024/04/01 11:30:03;;;;;;;8.70;3.50;;;;;;;;;;6172654;23;20032;-59
2024/04/01 11:32:56;;;;;;;4.88;2.97;;;;;;;;;;6173721;23;20021;-60
2024/04/01 11:35:51;;;;;;;5.25;2.78;;;;;;;;;;6173418;23;20490;-59
2024/04/01 11:38:59;;;;;;;3.92;2.83;;;;;;;;;;6173381;23;20146;-59
2024/04/01 11:41:50;;;;;;;5.03;3.00;;;;;;;;;;6174002;23;20088;-54
2024/04/01 11:44:43;;;;;;;6.13;3.20;;;;;;;;;;6173648;23;20021;-61
2024/04/01 11:47:31;;;;;;;5.22;3.00;;;;;;;;;;6173669;23;20021;-62
2024/04/01 11:50:23;;;;;;;4.05;2.80;;;;;;;;;;6175257;23;20655;-61
2024/04/01 11:53:10;;;;;;;8.60;3.58;;;;;;;;;;6174997;23;20458;-60
2024/04/01 11:56:03;;;;;;;5.80;3.45;;;;;;;;;;6175294;23;20017;-61
2024/04/01 11:58:49;;;;;;;4.38;3.05;;;;;;;;;;6173102;23;20028;-56
2024/04/01 12:01:42;;;;;;;6.13;3.17;;;;;;;;;;6173433;23;20021;-56
2024/04/01 12:04:29;;;;;;;5.03;2.90;;;;;;;;;;6172576;23;20080;-58
2024/04/01 12:07:21;;;;;;;3.67;2.65;;;;;;;;;;6174804;23;20398;-55
2024/04/01 12:10:08;;;;;;;5.28;3.10;;;;;;;;;;6174957;23;20347;-59
2024/04/01 12:13:09;;;;;;;4.32;2.90;;;;;;;;;;6174928;23;20501;-66
2024/04/01 12:15:54;;;;;;;4.45;2.58;;;;;;;;;;6173898;23;20021;-66
2024/04/01 12:18:57;;;;;;;3.97;2.78;;;;;;;;;;6173272;23;20497;-65
2024/04/01 12:21:50;;;;;;;6.28;3.00;;;;;;;;;;6144172;23;20481;-66
2024/04/01 12:24:43;;;;;;;3.22;2.47;;;;;;;;;;6143976;23;20017;-67
2024/04/01 12:27:33;;;;;;;3.38;2.22;;;;;;;;;;6144130;23;20568;-65
2024/04/01 12:30:27;;;;;;;7.07;2.88;;;;;;;;;;6141882;23;20430;-65
2024/04/01 12:33:14;;;;;;;4.97;2.55;;;;;;;;;;6142690;23;20025;-66
2024/04/01 12:36:07;;;;;;;3.80;2.70;;;;;;;;;;6143150;23;20581;-66
2024/04/01 12:38:54;;;;;;;4.28;2.92;;;;;;;;;;6144436;23;20363;-58
2024/04/01 12:41:46;;;;;;;4.85;2.47;;;;;;;;;;6143841;23;20021;-63
2024/04/01 12:44:33;;;;;;;4.50;2.30;;;;;;;;;;6143578;23;20018;-63
2024/04/01 12:47:28;;;;;;;3.38;2.45;;;;;;;;;;6144110;23;20025;-62
2024/04/01 12:50:15;;;;;;;3.67;2.42;;;;;;;;;;6144388;23;20028;-62
2024/04/01 12:53:25;;;;;;;4.13;2.50;;;;;;;;;;6145730;23;20644;-62
2024/04/01 12:56:19;;;;;;;4.40;2.40;;;;;;;;;;6144420;23;20025;-61
2024/04/01 12:59:21;;;;;;;3.05;2.17;;;;;;;;;;6144423;23;20032;-60
2024/04/01 13:02:07;;;;;;;3.25;2.20;;;;;;;;;;6145390;23;20076;-60
2024/04/01 13:05:00;;;;;;;2.22;1.77;;;;;;;;;;6143741;23;20040;-61
2024/04/01 13:07:50;;;;;;;2.90;2.28;;;;;;;;;;6142355;23;20186;-67
2024/04/01 13:10:48;;;;;;;5.20;2.00;;;;;;;;;;6144008;23;20026;-60
2024/04/01 13:14:00;;;;;;;2.92;1.90;;;;;;;;;;6142782;23;20029;-60
2024/04/01 13:17:03;;;;;;;3.05;1.98;;;;;;;;;;6143241;23;20718;-60
2024/04/01 13:19:59;;;;;;;3.15;1.67;;;;;;;;;;6151970;23;20134;-60
2024/04/01 13:22:52;;;;;;;3.80;1.73;;;;;;;;;;6173033;23;20032;-61
2024/04/01 13:25:44;;;;;;;2.80;1.80;;;;;;;;;;6173672;23;20021;-61
2024/04/01 13:28:39;;;;;;;3.67;1.27;;;;;;;;;;6172975;23;20024;-61
2024/04/01 13:32:04;;;;;;;2.67;1.70;;;;;;;;;;6175017;23;20032;-61
2024/04/01 13:34:59;;;;;;;2.45;1.75;;;;;;;;;;6117509;23;20610;-53
2024/04/01 13:38:03;;;;;;;5.05;1.90;;;;;;;;;;6117298;23;20025;-68
2024/04/01 13:41:05;;;;;;;5.22;2.10;;;;;;;;;;6174567;23;20025;-65
2024/04/01 13:44:07;;;;;;;2.42;1.83;;;;;;;;;;6172700;23;20640;-66
2024/04/01 13:47:09;;;;;;;4.47;1.90;;;;;;;;;;6173792;23;20469;-66
2024/04/01 13:49:56;;;;;;;3.45;1.92;;;;;;;;;;6172458;23;20021;-66
2024/04/01 13:53:08;;;;;;;2.25;1.90;;;;;;;;;;6173874;23;20021;-51
2024/04/01 13:56:06;;;;;;;3.00;1.88;;;;;;;;;;6171453;23;20021;-52
2024/04/01 13:59:03;;;;;;;1.98;1.55;;;;;;;;;;6172801;23;20021;-52
2024/04/01 14:02:02;;;;;;;1.95;1.30;;;;;;;;;;6169107;23;20382;-51
2024/04/01 14:05:13;;;;;;;1.85;1.48;;;;;;;;;;6171888;23;20025;-61
2024/04/01 14:08:06;;;;;;;4.82;1.63;;;;;;;;;;6171670;23;20029;-66
2024/04/01 14:11:24;;;;;;;3.28;1.40;;;;;;;;;;6172344;23;20024;-66
2024/04/01 14:14:36;;;;;;;2.15;1.52;;;;;;;;;;6170636;23;20099;-67
2024/04/01 14:17:34;;;;;;;1.83;1.58;;;;;;;;;;6170304;23;20021;-66
2024/04/01 14:20:15;;;;;;;3.65;1.33;;;;;;;;;;6170273;23;20029;-67
2024/04/01 14:22:48;;;;;;;2.25;1.80;;;;;;;;;;6173889;23;20474;-55
2024/04/01 14:25:21;;;;;;;3.40;1.50;;;;;;;;;;6170748;23;20021;-54
2024/04/01 14:27:48;;;;;;;2.00;1.27;;;;;;;;;;6170191;23;20083;-52
2024/04/01 14:30:14;;;;;;;2.33;1.50;;;;;;;;;;6171293;23;20025;-51
2024/04/01 14:32:48;;;;;;;2.78;1.50;;;;;;;;;;6173813;23;20033;-66
2024/04/01 14:35:14;;;;;;;2.10;1.50;;;;;;;;;;6170999;23;20463;-51
2024/04/01 14:37:47;;;;;;;3.08;1.85;;;;;;;;;;6171909;23;20028;-53
2024/04/01 14:40:14;;;;;;;3.30;1.90;;;;;;;;;;6172344;23;20017;-49
2024/04/01 14:42:40;;;;;;;1.90;1.60;;;;;;;;;;6170165;23;20036;-47
2024/04/01 14:45:14;;;;;;;2.10;1.40;;;;;;;;;;6171235;23;20024;-50
2024/04/01 14:47:40;;;;;;;;;;;;;;;;;;6173541;23;20024;-49
2024/04/01 14:50:14;;;;;;;1.85;1.50;;;;;;;;;;6171774;23;19920;-52
2024/04/01 14:52:41;;;;;;;1.45;1.35;;;;;;;;;;6173080;23;20025;-62
2024/04/01 14:55:07;;;;;;;3.63;2.15;;;;;;;;;;6172090;23;20025;-62
2024/04/01 14:57:42;;;;;;;3.22;2.33;;;;;;;;;;6172259;23;20025;-62
2024/04/01 15:00:27;;;;;;;3.60;2.17;;;;;;;;;;6173134;23;20021;-62
2024/04/01 15:03:22;;;;;;;3.20;2.17;;;;;;;;;;6173102;23;20025;-62
2024/04/01 15:06:08;;;;;;;2.95;1.80;;;;;;;;;;6173169;23;20344;-62
2024/04/01 15:09:08;;;;;;;2.05;1.52;;;;;;;;;;6174879;23;20029;-67
2024/04/01 15:11:55;;;;;;;3.53;1.70;;;;;;;;;;6174719;23;20068;-62
2024/04/01 15:14:54;;;;;;;1.85;1.58;;;;;;;;;;6173938;23;20542;-62
2024/04/01 15:17:47;;;;;;;1.88;1.30;;;;;;;;;;6174575;23;20028;-62
2024/04/01 15:20:39;;;;;;;1.83;1.45;;;;;;;;;;6169956;23;20032;-62
2024/04/01 15:23:33;;;;;;;4.20;1.42;;;;;;;;;;6172847;23;20766;-62
2024/04/01 15:26:20;;;;;;;2.00;1.67;;;;;;;;;;6171058;23;20041;-60
2024/04/01 15:29:14;;;;;;;1.67;1.52;;;;;;;;;;6173156;23;20025;-66
2024/04/01 15:32:01;;;;;;;1.67;1.58;;;;;;;;;;6173542;23;20028;-66
2024/04/01 15:34:54;;;;;;;2.58;1.85;;;;;;;;;;6172362;23;20785;-65
2024/04/01 15:37:41;;;;;;;2.08;1.45;;;;;;;;;;6172351;23;20032;-66
2024/04/01 15:40:35;;;;;;;4.03;1.55;;;;;;;;;;6172826;23;20738;-66
2024/04/01 15:43:20;;;;;;;1.90;1.17;;;;;;;;;;6173120;23;20698;-66
2024/04/01 15:46:13;;;;;;;2.35;1.17;;;;;;;;;;6173684;23;20478;-65
2024/04/01 15:49:00;;;;;;;1.52;1.10;;;;;;;;;;6171910;23;20032;-60
2024/04/01 15:51:53;;;;;;;1.98;1.30;;;;;;;;;;6171689;23;20017;-60
2024/04/01 15:54:40;;;;;;;1.17;1.08;;;;;;;;;;6171658;23;20583;-61
2024/04/01 15:57:13;;;;;;;1.92;1.55;;;;;;;;;;6172429;23;20028;-60
2024/04/01 15:59:39;;;;;;;1.00;0.90;;;;;;;;;;6173076;23;20043;-61
2024/04/01 16:02:06;;;;;;;1.38;0.93;;;;;;;;;;6171577;23;20085;-60
2024/04/01 16:04:39;;;;;;;0.95;0.93;;;;;;;;;;6173359;23;20021;-61
2024/04/01 16:07:06;;;;;;;1.40;0.98;;;;;;;;;;6172364;23;20040;-61
2024/04/01 16:09:32;;;;;;;2.78;1.20;;;;;;;;;;6172022;23;20021;-62
2024/04/01 16:12:06;;;;;;;1.85;1.25;;;;;;;;;;6175253;23;20033;-61
2024/04/01 16:14:59;;;;;;;1.40;0.98;;;;;;;;;;6173837;23;20082;-62
2024/04/01 16:17:51;;;;;;;1.35;0.98;;;;;;;;;;6173911;23;20021;-60
2024/04/01 16:20:39;;;;;;;1.25;1.00;;;;;;;;;;6170848;23;20052;-60
2024/04/01 16:23:31;;;;;;;2.08;1.33;;;;;;;;;;6171681;23;20032;-61
2024/04/01 16:26:18;;;;;;;2.60;1.20;;;;;;;;;;6173294;23;20029;-59
2024/04/01 16:29:13;;;;;;;1.02;1.00;;;;;;;;;;6173896;23;20031;-60
2024/04/01 16:32:01;;;;;;;1.08;0.70;;;;;;;;;;6173485;23;20032;-59
2024/04/01 16:34:54;;;;;;;3.22;1.20;;;;;;;;;;6171499;23;20021;-59
2024/04/01 16:37:40;;;;;;;1.05;0.95;;;;;;;;;;6172173;23;20021;-59
2024/04/01 16:40:33;;;;;;;0.80;0.80;;;;;;;;;;6172161;23;20370;-49
2024/04/01 16:43:26;;;;;;;2.00;1.20;;;;;;;;;;6173221;23;20037;-55